Time;durP1;ratioP1;P1;durP2;ratioP2;P2;SDS_P1;SDS_P2;PMS_P1;PMS_P2;Temp;Humidity;BMP_temperature;BMP_pressure;BME280_temperature;BME280_humidity;BME280_pressure;Samples;Min_cycle;Max_cycle;Signal;HPM_P1;HPM_P2
2022/05/15 00:00:37;;;;;;;;;3.00;3.00;;;;;22.06;34.21;101401.78;5038301;28;47607;-89
2022/05/15 00:00:41;;;;;;;;;3.00;3.00;;;;;21.82;34.21;101344.94;5057535;28;45315;-89
2022/05/15 00:03:12;;;;;;;;;4.00;2.33;;;;;21.98;34.25;101366.25;5040263;28;45395;-90
2022/05/15 00:05:37;;;;;;;;;4.00;4.00;;;;;21.80;34.64;101337.91;5057436;28;45494;-89
2022/05/15 00:08:03;;;;;;;;;1.67;0.33;;;;;21.46;34.59;101289.94;5038548;28;48012;-90
2022/05/15 00:10:28;;;;;;;;;4.00;4.00;;;;;21.32;34.42;101264.91;5038637;28;45347;-90
2022/05/15 00:12:53;;;;;;;;;5.00;4.00;;;;;21.03;34.41;101222.91;5040392;28;45523;-89
2022/05/15 00:15:19;;;;;;;;;3.67;1.00;;;;;21.82;34.94;101344.94;5060686;28;45421;-90
2022/05/15 00:17:44;;;;;;;;;5.00;5.00;;;;;21.57;35.14;101304.50;5041864;28;46933;-89
2022/05/15 00:20:10;;;;;;;;;5.33;4.00;;;;;21.73;35.48;101332.13;5041950;28;45493;-90
2022/05/15 00:22:36;;;;;;;;;3.67;3.33;;;;;21.56;35.50;101308.19;5042375;28;45544;-90
2022/05/15 00:25:03;;;;;;;;;4.00;4.00;;;;;21.88;35.55;101358.00;5042014;28;45521;-89
2022/05/15 00:27:28;;;;;;;;;5.00;4.33;;;;;21.15;35.51;101236.47;5058451;28;48470;-89
2022/05/15 00:29:53;;;;;;;;;5.67;5.67;;;;;21.66;35.36;101330.91;5059733;28;45469;-89
2022/05/15 00:32:19;;;;;;;;;3.00;3.00;;;;;21.87;35.61;101372.56;5042110;28;45329;-89
2022/05/15 00:34:44;;;;;;;;;0.00;0.00;;;;;21.66;35.48;101329.03;5041980;28;45565;-89
2022/05/15 00:37:09;;;;;;;;;3.00;1.33;;;;;21.46;35.92;101306.22;5059454;28;45486;-88
2022/05/15 00:39:35;;;;;;;;;4.67;4.67;;;;;21.50;35.68;101306.84;5041902;28;45322;-89
2022/05/15 00:42:00;;;;;;;;;3.67;3.67;;;;;21.59;36.10;101325.09;5041909;28;45415;-89
2022/05/15 00:44:25;;;;;;;;;3.00;3.00;;;;;21.64;35.91;101328.31;5042119;28;45505;-90
2022/05/15 00:46:51;;;;;;;;;2.67;2.67;;;;;21.09;35.78;101235.09;5041668;28;47950;-90
2022/05/15 00:49:16;;;;;;;;;4.00;4.00;;;;;21.58;36.06;101325.22;5041999;28;46064;-90
2022/05/15 00:51:53;;;;;;;;;7.00;7.00;;;;;21.78;35.74;101351.59;5059705;28;45385;-89
2022/05/15 00:54:18;;;;;;;;;3.00;3.00;;;;;21.77;36.13;101347.16;5041552;28;45672;-90
2022/05/15 00:56:57;;;;;;;;;7.33;6.00;;;;;21.02;35.99;101232.00;5041411;28;48321;-89
2022/05/15 00:59:27;;;;;;;;;4.00;4.00;;;;;21.22;36.07;101268.38;5041122;28;45385;-89
2022/05/15 01:01:52;;;;;;;;;4.00;4.00;;;;;21.73;36.38;101345.69;5042026;28;45354;-90
2022/05/15 01:04:18;;;;;;;;;3.00;3.00;;;;;21.36;36.45;101282.66;5041558;28;45526;-89
2022/05/15 01:06:44;;;;;;;;;5.67;5.67;;;;;21.69;36.24;101344.19;5040879;28;48301;-89
2022/05/15 01:09:12;;;;;;;;;5.00;5.00;;;;;21.25;36.29;101275.38;5040831;28;45972;-89
2022/05/15 01:11:38;;;;;;;;;4.67;3.67;;;;;21.14;37.10;101248.28;5040886;28;45270;-89
2022/05/15 01:14:08;;;;;;;;;4.00;4.00;;;;;21.29;36.81;101280.44;5059027;28;45554;-89
2022/05/15 01:16:36;;;;;;;;;4.00;4.00;;;;;21.64;36.73;101341.88;5040912;28;46443;-89
2022/05/15 01:19:03;;;;;;;;;4.00;4.00;;;;;21.41;36.89;101304.88;5040784;28;45309;-89
2022/05/15 01:21:36;;;;;;;;;3.33;3.33;;;;;21.63;37.10;101336.56;5040352;28;45572;-89
2022/05/15 01:24:04;;;;;;;;;6.00;2.67;;;;;20.33;37.01;101128.25;5068758;28;45462;-89
2022/05/15 01:26:31;;;;;;;;;2.67;2.67;;;;;20.80;37.29;101213.03;5047884;28;48296;-90
2022/05/15 01:28:57;;;;;;;;;2.33;2.33;;;;;20.91;36.71;101214.88;5037527;28;45805;-89
2022/05/15 01:31:23;;;;;;;;;3.67;3.33;;;;;21.44;37.09;101307.34;5069093;28;45472;-89
2022/05/15 01:33:50;;;;;;;;;1.33;1.33;;;;;21.59;36.76;101327.81;5041104;28;45368;-90
2022/05/15 01:36:19;;;;;;;;;4.67;3.67;;;;;21.11;37.05;101259.38;5040842;28;46601;-89
2022/05/15 01:38:44;;;;;;;;;4.67;4.67;;;;;21.46;37.22;101327.94;5063092;28;45485;-89
2022/05/15 01:41:12;;;;;;;;;4.00;4.00;;;;;20.53;37.05;101167.28;5050172;28;45381;-90
2022/05/15 01:43:39;;;;;;;;;7.00;5.33;;;;;21.14;37.20;101249.16;5053576;28;45575;-89
2022/05/15 01:46:05;;;;;;;;;5.00;4.00;;;;;21.07;37.15;101243.38;5061013;28;47183;-89
2022/05/15 01:48:31;;;;;;;;;7.00;5.00;;;;;20.52;37.57;101144.75;5061506;27;45783;-86
2022/05/15 01:50:56;;;;;;;;;5.00;2.33;;;;;21.18;37.41;101269.59;5079025;28;45393;-86
2022/05/15 01:53:21;;;;;;;;;0.00;0.00;;;;;21.22;37.46;101267.50;5041416;28;45357;-86
2022/05/15 01:55:47;;;;;;;;;3.33;3.33;;;;;21.26;37.79;101277.13;5058436;28;45334;-86
2022/05/15 01:58:13;;;;;;;;;3.00;3.00;;;;;21.39;37.86;101312.25;5057594;28;45402;-86
2022/05/15 02:00:38;;;;;;;;;2.00;2.00;;;;;20.93;38.04;101240.91;5039713;28;45540;-86
2022/05/15 02:03:03;;;;;;;;;3.00;3.00;;;;;21.11;37.66;101259.38;5040128;28;45184;-86
2022/05/15 02:05:29;;;;;;;;;4.00;4.00;;;;;21.11;37.52;101262.09;5057620;28;45829;-86
2022/05/15 02:07:54;;;;;;;;;5.33;4.00;;;;;20.40;38.13;101138.47;5056244;28;45522;-86
2022/05/15 02:10:20;;;;;;;;;3.00;3.00;;;;;21.32;37.84;101290.19;5039052;28;45444;-86
2022/05/15 02:12:46;;;;;;;;;3.33;3.33;;;;;20.80;38.09;101215.75;5040195;28;45492;-85
2022/05/15 02:15:12;;;;;;;;;4.00;4.00;;;;;21.03;38.47;101255.44;5058052;28;46094;-90
2022/05/15 02:17:38;;;;;;;;;2.67;2.67;;;;;21.24;38.53;101282.66;5058149;28;45548;-86
2022/05/15 02:20:05;;;;;;;;;4.00;4.00;;;;;21.21;38.37;101273.91;5057954;28;45347;-85
2022/05/15 02:22:31;;;;;;;;;3.00;3.00;;;;;20.89;38.76;101236.69;5039928;28;45185;-86
2022/05/15 02:24:57;;;;;;;;;2.67;2.67;;;;;20.01;38.73;101082.91;5057804;28;45345;-86
2022/05/15 02:27:22;;;;;;;;;4.00;4.00;;;;;21.14;38.98;101278.09;5039762;28;45399;-85
2022/05/15 02:29:48;;;;;;;;;3.00;3.00;;;;;21.02;38.59;101261.81;5058113;28;45763;-85
2022/05/15 02:32:13;;;;;;;;;3.67;3.67;;;;;20.49;39.40;101184.78;5045983;28;45382;-86
2022/05/15 02:34:39;;;;;;;;;2.00;2.00;;;;;21.06;39.25;101281.41;5058812;28;48354;-86
2022/05/15 02:37:04;;;;;;;;;3.00;3.00;;;;;20.50;39.01;101194.63;5047935;28;45408;-85
2022/05/15 02:39:30;;;;;;;;;4.00;3.00;;;;;20.11;39.05;101138.06;5057743;28;45303;-85
2022/05/15 02:41:55;;;;;;;;;3.00;3.00;;;;;20.73;39.38;101247.88;5057667;28;45401;-86
2022/05/15 02:44:21;;;;;;;;;3.00;3.00;;;;;20.16;39.59;101148.53;5038617;28;47315;-86
2022/05/15 02:46:46;;;;;;;;;1.67;1.67;;;;;20.77;39.61;101256.63;5057306;28;45446;-85
2022/05/15 02:51:56;;;;;;;;;3.00;3.00;;;;;20.58;39.21;101235.53;5057538;28;45309;-85
2022/05/15 02:54:22;;;;;;;;;4.00;3.67;;;;;20.78;39.51;101283.59;5049561;28;47344;-85
2022/05/15 02:56:47;;;;;;;;;2.00;2.00;;;;;20.86;39.54;101305.53;5077611;28;45459;-85
2022/05/15 02:59:13;;;;;;;;;2.00;1.67;;;;;20.55;39.88;101239.31;5077710;28;45335;-86
2022/05/15 03:01:38;;;;;;;;;3.00;3.00;;;;;20.19;39.63;101189.75;5059391;28;45311;-86
2022/05/15 03:04:04;;;;;;;;;2.33;2.00;;;;;20.69;39.80;101262.63;5077127;28;45378;-85
2022/05/15 03:06:30;;;;;;;;;2.00;2.00;;;;;20.56;39.29;101232.94;5058541;28;46238;-85
2022/05/15 03:08:57;;;;;;;;;3.00;3.00;;;;;20.93;39.86;101288.78;5077769;28;45327;-85
2022/05/15 03:11:23;;;;;;;;;3.00;2.00;;;;;20.59;39.43;101234.56;5059629;28;45472;-86
2022/05/15 03:13:48;;;;;;;;;2.00;2.00;;;;;20.52;39.69;101215.19;5059152;28;47291;-85
2022/05/15 03:16:16;;;;;;;;;3.00;2.00;;;;;20.37;39.69;101194.69;5077601;28;45252;-85
2022/05/15 03:18:49;;;;;;;;;4.00;3.00;;;;;20.60;39.98;101230.84;5077486;28;45372;-85
2022/05/15 03:21:28;;;;;;;;;3.33;3.33;;;;;20.84;39.33;101268.72;5077686;28;45354;-85
2022/05/15 03:24:14;;;;;;;;;3.00;2.00;;;;;20.83;39.65;101272.41;5076185;28;46174;-85
2022/05/15 03:26:43;;;;;;;;;4.00;4.00;;;;;20.51;39.75;101210.75;5076484;28;45321;-86
2022/05/15 03:29:10;;;;;;;;;2.00;2.00;;;;;20.82;39.84;101263.41;5058930;28;45328;-85
2022/05/15 03:31:36;;;;;;;;;3.00;3.00;;;;;20.53;39.36;101213.31;5076858;28;45380;-85
2022/05/15 03:34:06;;;;;;;;;2.00;2.00;;;;;20.78;39.55;101261.06;5058829;28;47438;-85
2022/05/15 03:36:33;;;;;;;;;2.67;2.67;;;;;20.75;39.36;101264.03;5076351;28;45398;-85
2022/05/15 03:38:59;;;;;;;;;1.00;1.00;;;;;20.39;39.31;101201.75;5058843;28;45518;-85
2022/05/15 03:41:24;;;;;;;;;3.00;3.00;;;;;20.49;39.56;101226.25;5077930;28;45377;-90
2022/05/15 03:43:50;;;;;;;;;2.00;2.00;;;;;20.46;39.59;101229.19;5059376;28;47275;-90
2022/05/15 03:46:15;;;;;;;;;2.00;2.00;;;;;20.06;39.97;101150.19;5060531;28;45295;-90
2022/05/15 03:48:40;;;;;;;;;2.00;2.00;;;;;20.23;39.38;101180.41;5063194;28;45949;-90
2022/05/15 03:51:06;;;;;;;;;1.33;1.33;;;;;20.12;39.73;101174.09;5063566;28;45503;-90
2022/05/15 03:53:32;;;;;;;;;3.00;3.00;;;;;19.74;39.50;101121.09;5062879;28;47261;-90
2022/05/15 03:55:59;;;;;;;;;2.67;2.67;;;;;20.45;39.58;101233.75;5062925;28;45532;-90
2022/05/15 03:58:26;;;;;;;;;3.00;2.00;;;;;19.40;40.22;101050.59;5081022;28;45427;-90
2022/05/15 04:00:51;;;;;;;;;3.00;3.00;;;;;19.81;39.40;101125.06;5062886;28;45334;-91
2022/05/15 04:03:18;;;;;;;;;2.00;2.00;;;;;19.88;39.66;101149.75;5062528;28;47994;-90
2022/05/15 04:05:44;;;;;;;;;1.67;1.67;;;;;19.70;39.55;101123.16;5062805;28;45460;-90
2022/05/15 04:08:10;;;;;;;;;3.00;2.00;;;;;19.96;40.00;101163.59;5081203;28;45357;-90
2022/05/15 04:10:36;;;;;;;;;5.00;2.00;;;;;19.75;39.91;101125.50;5063145;28;45580;-90
2022/05/15 04:13:02;;;;;;;;;2.00;2.00;;;;;19.24;39.97;101041.94;5062819;28;48458;-90
2022/05/15 04:15:29;;;;;;;;;2.00;2.00;;;;;19.49;39.98;101106.69;5058855;28;45370;-86
2022/05/15 04:17:54;;;;;;;;;3.00;1.33;;;;;19.68;40.05;101124.22;5059870;28;45425;-85
2022/05/15 04:20:23;;;;;;;;;2.00;2.00;;;;;20.19;39.71;101224.06;5068972;28;45378;-86
2022/05/15 04:22:49;;;;;;;;;2.00;2.00;;;;;19.95;39.70;101187.09;5079822;28;46601;-86
2022/05/15 04:25:14;;;;;;;;;2.67;2.67;;;;;19.84;40.00;101180.75;5062394;28;45341;-90
2022/05/15 04:27:41;;;;;;;;;4.00;2.00;;;;;20.31;39.78;101252.03;5080619;27;45410;-90
2022/05/15 04:30:11;;;;;;;;;2.67;2.00;;;;;20.19;40.20;101222.22;5080787;28;45524;-90
2022/05/15 04:32:36;;;;;;;;;2.00;2.00;;;;;20.19;40.00;101229.47;5062093;28;47139;-89
2022/05/15 04:35:02;;;;;;;;;4.00;3.00;;;;;19.87;40.28;101175.97;5062245;28;46422;-91
2022/05/15 04:37:27;;;;;;;;;2.00;2.00;;;;;19.71;39.72;101137.53;5062597;28;45244;-91
2022/05/15 04:39:53;;;;;;;;;2.00;2.00;;;;;19.81;40.17;101160.22;5081299;28;45421;-90
2022/05/15 04:42:18;;;;;;;;;2.00;2.00;;;;;20.31;39.60;101239.38;5062451;28;47543;-90
2022/05/15 04:44:45;;;;;;;;;3.00;3.00;;;;;20.14;40.27;101215.44;5080741;28;45330;-90
2022/05/15 04:47:11;;;;;;;;;1.67;1.67;;;;;19.71;40.21;101137.53;5062458;28;45432;-90
2022/05/15 04:49:37;;;;;;;;;2.00;2.00;;;;;19.66;39.87;101143.25;5062730;28;45382;-90
2022/05/15 04:52:02;;;;;;;;;3.33;2.00;;;;;20.13;39.86;101211.00;5062060;28;47302;-90
2022/05/15 04:54:28;;;;;;;;;4.67;3.00;;;;;20.07;40.44;101208.78;5080541;28;45425;-90
2022/05/15 04:56:53;;;;;;;;;2.33;1.00;;;;;19.81;39.92;101158.38;5080591;28;45353;-86
2022/05/15 04:59:18;;;;;;;;;2.00;2.00;;;;;19.58;40.34;101134.88;5079601;28;45430;-90
2022/05/15 05:01:44;;;;;;;;;2.00;2.00;;;;;19.81;40.07;101174.59;5062014;28;48235;-90
2022/05/15 05:04:10;;;;;;;;;2.00;2.00;;;;;20.32;40.18;101240.22;5062229;28;45338;-90
2022/05/15 05:06:35;;;;;;;;;1.67;1.67;;;;;19.09;40.10;101054.75;5061589;28;45321;-86
2022/05/15 05:09:01;;;;;;;;;5.33;2.33;;;;;19.82;39.89;101170.91;5079552;28;45506;-86
2022/05/15 05:11:27;;;;;;;;;0.00;0.00;;;;;19.90;40.03;101186.56;5060643;28;46017;-86
2022/05/15 05:13:52;;;;;;;;;3.00;2.33;;;;;19.97;39.81;101193.25;5078470;28;45582;-86
2022/05/15 05:16:18;;;;;;;;;4.00;2.00;;;;;19.84;40.34;101169.94;5058578;28;45505;-86
2022/05/15 05:18:43;;;;;;;;;3.00;2.00;;;;;19.96;39.82;101188.78;5058640;28;45654;-86
2022/05/15 05:21:08;;;;;;;;;4.00;1.33;;;;;19.81;40.17;101181.84;5057103;28;45511;-85
2022/05/15 05:23:34;;;;;;;;;4.33;3.00;;;;;19.57;40.33;101134.03;5058241;28;45299;-86
2022/05/15 05:25:59;;;;;;;;;2.33;2.33;;;;;20.02;40.38;101206.41;5045988;28;46754;-86
2022/05/15 05:28:26;;;;;;;;;0.67;0.00;;;;;20.29;40.28;101254.00;5072758;28;45792;-90
2022/05/15 05:30:52;;;;;;;;;1.67;1.67;;;;;19.87;40.38;101202.16;5061524;28;48053;-89
2022/05/15 05:33:18;;;;;;;;;4.33;3.00;;;;;20.27;40.52;101259.53;5079819;27;45408;-90
2022/05/15 05:35:44;;;;;;;;;3.33;3.00;;;;;19.91;40.02;101192.84;5053338;28;45396;-90
2022/05/15 05:38:09;;;;;;;;;2.00;2.00;;;;;19.43;40.36;101136.88;5042060;28;45366;-89
2022/05/15 05:43:56;;;;;;;;;3.00;3.00;;;;;19.79;40.66;101195.50;5058819;28;45500;-90
2022/05/15 05:46:21;;;;;;;;;2.33;2.33;;;;;19.71;40.47;101183.50;5040994;28;45361;-89
2022/05/15 05:48:47;;;;;;;;;4.00;4.00;;;;;19.73;40.57;101195.94;5041620;28;45496;-90
2022/05/15 05:51:14;;;;;;;;;3.33;2.00;;;;;19.64;41.02;101172.25;5040636;28;47476;-89
2022/05/15 05:53:40;;;;;;;;;2.00;2.00;;;;;20.13;41.03;101248.88;5057532;28;45808;-89
2022/05/15 05:56:05;;;;;;;;;4.67;3.33;;;;;20.00;40.72;101222.75;5059242;28;45557;-89
2022/05/15 05:58:31;;;;;;;;;3.33;2.00;;;;;19.28;40.83;101097.50;5041488;28;45392;-89
2022/05/15 06:00:56;;;;;;;;;3.00;3.00;;;;;19.80;41.00;101189.09;5040693;28;47044;-89
2022/05/15 06:06:06;;;;;;;;;2.33;2.33;;;;;20.06;40.77;101225.97;5059129;28;45388;-88
2022/05/15 06:08:31;;;;;;;;;4.33;2.33;;;;;20.16;41.38;101238.69;5059223;28;45599;-89
2022/05/15 06:10:57;;;;;;;;;2.00;2.00;;;;;20.13;40.77;101224.53;5039556;28;47155;-88
2022/05/15 06:13:23;;;;;;;;;3.33;3.33;;;;;20.44;40.56;101253.69;5040631;28;45313;-89
2022/05/15 06:15:49;;;;;;;;;2.00;2.00;;;;;19.94;40.75;101160.13;5058802;28;45366;-89
2022/05/15 06:18:14;;;;;;;;;2.67;2.67;;;;;20.22;40.73;101191.34;5040260;28;45529;-87
2022/05/15 06:20:39;;;;;;;;;1.33;1.33;;;;;20.44;40.67;101232.03;5063021;28;45259;-87
2022/05/15 06:23:05;;;;;;;;;2.00;2.00;;;;;19.98;40.22;101146.25;5061210;28;45289;-89
2022/05/15 06:25:30;;;;;;;;;3.33;3.33;;;;;20.67;40.52;101245.63;5079470;28;45303;-89
2022/05/15 06:27:56;;;;;;;;;2.00;2.00;;;;;20.40;40.17;101187.22;5052592;28;45523;-89
2022/05/15 06:30:21;;;;;;;;;4.00;3.00;;;;;20.80;40.15;101248.25;5040231;28;47114;-89
2022/05/15 06:32:47;;;;;;;;;3.00;3.00;;;;;20.33;40.04;101167.00;5040558;28;45259;-88
2022/05/15 06:35:14;;;;;;;;;3.33;3.33;;;;;20.59;39.86;101211.03;5058684;28;45326;-89
2022/05/15 06:37:40;;;;;;;;;2.00;2.00;;;;;20.10;40.53;101130.91;5040880;28;45479;-88
2022/05/15 06:40:07;;;;;;;;;4.00;4.00;;;;;20.83;39.97;101256.13;5040278;28;47116;-88
2022/05/15 06:42:34;;;;;;;;;2.00;2.00;;;;;20.38;40.16;101172.94;5040273;28;45988;-88
2022/05/15 06:44:59;;;;;;;;;3.00;3.00;;;;;20.15;40.25;101122.44;5040377;28;45260;-89
2022/05/15 06:47:25;;;;;;;;;4.67;4.00;;;;;20.22;40.24;101148.03;5040635;28;45228;-88
2022/05/15 06:49:51;;;;;;;;;4.00;4.00;;;;;20.69;40.38;101211.16;5040219;28;47240;-89
2022/05/15 06:52:16;;;;;;;;;4.00;2.33;;;;;20.57;39.79;101188.63;5058327;28;45346;-89
2022/05/15 06:54:42;;;;;;;;;4.67;3.00;;;;;20.49;39.87;101153.13;5058645;28;45343;-89
2022/05/15 06:59:52;;;;;;;;;4.00;4.00;;;;;20.89;39.69;101173.53;5058062;28;45480;-88
2022/05/15 07:02:17;;;;;;;;;4.00;4.00;;;;;21.20;39.00;101204.41;5040830;28;45435;-89
2022/05/15 07:04:43;;;;;;;;;3.00;3.00;;;;;20.79;39.44;101125.50;5059934;28;45393;-88
2022/05/15 07:07:08;;;;;;;;;2.67;2.67;;;;;21.04;38.92;101166.84;5042495;28;45607;-88
2022/05/15 07:09:35;;;;;;;;;7.00;4.00;;;;;21.59;38.96;101229.28;5059061;28;46901;-89
2022/05/15 07:12:01;;;;;;;;;4.67;2.67;;;;;21.66;38.80;101209.66;5060198;28;46005;-88
2022/05/15 07:14:27;;;;;;;;;9.00;5.67;;;;;21.62;38.86;101185.63;5078402;28;45348;-88
2022/05/15 07:16:52;;;;;;;;;3.33;3.00;;;;;20.82;38.51;101033.09;5060313;28;45380;-89
2022/05/15 07:19:17;;;;;;;;;5.00;5.00;;;;;21.19;38.59;101070.72;5076753;28;47864;-88
2022/05/15 07:21:43;;;;;;;;;4.67;1.33;;;;;21.33;38.45;101080.41;5048378;28;45351;-85
2022/05/15 07:24:08;;;;;;;;;4.00;4.00;;;;;22.20;37.94;101201.56;5041348;28;45642;-90
2022/05/15 07:26:34;;;;;;;;;4.33;3.00;;;;;22.31;38.31;101199.69;5041585;28;45388;-84
2022/05/15 07:29:00;;;;;;;;;5.00;5.00;;;;;22.31;37.78;101187.94;5062418;28;45574;-85
2022/05/15 07:31:25;;;;;;;;;2.67;2.67;;;;;22.07;37.71;101147.44;5051525;28;45454;-87
2022/05/15 07:33:50;;;;;;;;;2.33;2.33;;;;;22.09;37.77;101145.47;5065746;28;45516;-86
2022/05/15 07:36:16;;;;;;;;;3.00;3.00;;;;;22.13;37.49;101155.91;5057792;28;45557;-87
2022/05/15 07:38:42;;;;;;;;;6.67;5.00;;;;;22.02;37.60;101144.25;5046756;28;47236;-85
2022/05/15 07:41:09;;;;;;;;;4.00;4.00;;;;;22.29;37.52;101198.09;5072457;27;45519;-90
2022/05/15 07:43:35;;;;;;;;;1.67;1.67;;;;;21.95;37.95;101145.78;5060528;28;45530;-83
2022/05/15 07:46:00;;;;;;;;;2.00;2.00;;;;;21.96;37.69;101136.63;5067852;28;45545;-85
2022/05/15 07:48:25;;;;;;;;;3.33;3.33;;;;;22.00;37.80;101141.66;5066860;27;45567;-85
2022/05/15 07:50:52;;;;;;;;;3.00;3.00;;;;;21.93;37.11;101119.63;5045520;28;50007;-86
2022/05/15 07:53:18;;;;;;;;;2.00;2.00;;;;;22.09;37.22;101140.03;5061953;28;45385;-85
2022/05/15 07:55:43;;;;;;;;;4.00;2.33;;;;;22.42;36.86;101179.72;5059053;28;45688;-83
2022/05/15 07:58:09;;;;;;;;;2.00;2.00;;;;;22.34;37.49;101155.09;5061474;28;46024;-86
2022/05/15 08:00:34;;;;;;;;;2.00;2.00;;;;;22.59;36.96;101177.38;5044182;28;45188;-85
2022/05/15 08:03:11;;;;;;;;;3.00;2.00;;;;;22.37;36.31;101124.09;5037943;28;45637;-86
2022/05/15 08:08:23;;;;;;;;;7.00;4.00;;;;;22.57;35.99;101122.31;5066569;28;45608;-84
2022/05/15 08:10:49;;;;;;;;;2.33;2.33;;;;;22.71;35.94;101128.28;5052457;28;45603;-85
2022/05/15 08:13:19;;;;;;;;;3.33;2.67;;;;;22.82;36.19;101113.69;5049192;28;45454;-83
2022/05/15 08:15:45;;;;;;;;;2.00;2.00;;;;;23.17;36.52;101140.47;5052033;28;45589;-87
2022/05/15 08:23:55;;;;;;;;;4.00;3.00;;;;;23.43;35.17;101099.13;5064971;28;45397;-86
2022/05/15 08:26:21;;;;;;;;;2.67;2.67;;;;;23.34;34.76;101045.56;5076851;28;45397;-94
2022/05/15 08:28:47;;;;;;;;;2.00;2.00;;;;;23.33;34.23;101012.06;5055439;28;47846;-87
2022/05/15 08:31:13;;;;;;;;;3.00;3.00;;;;;24.25;33.97;101118.72;5060360;28;46835;-87
2022/05/15 08:33:39;;;;;;;;;4.00;2.00;;;;;24.20;33.53;101057.38;5041483;28;45594;-89
2022/05/15 08:36:06;;;;;;;;;2.00;2.00;;;;;24.80;33.04;101114.28;5042709;28;45450;-89
2022/05/15 08:38:32;;;;;;;;;1.33;1.33;;;;;24.75;32.33;101062.06;5052469;28;46963;-90
2022/05/15 08:41:02;;;;;;;;;1.33;1.33;;;;;24.96;31.42;101039.13;5065677;28;45527;-91
2022/05/15 08:43:37;;;;;;;;;2.00;2.00;;;;;25.46;30.76;101076.84;5043000;28;45438;-90
2022/05/15 08:46:14;;;;;;;;;1.00;1.00;;;;;25.70;30.33;101049.75;5063136;28;45423;-91
2022/05/15 08:48:39;;;;;;;;;3.00;2.00;;;;;26.29;28.84;101051.88;5067620;28;45653;-91
2022/05/15 08:51:08;;;;;;;;;2.00;2.00;;;;;26.98;27.82;101057.34;5043274;28;45540;-92
2022/05/15 08:53:38;;;;;;;;;1.00;1.00;;;;;27.60;27.88;101033.16;5062519;28;45355;-91
2022/05/15 08:56:07;;;;;;;;;2.33;2.33;;;;;28.40;26.79;101024.13;5060763;28;45383;-91
2022/05/15 08:58:50;;;;;;;;;0.67;0.67;;;;;29.66;25.57;101091.75;5049515;28;48023;-92
2022/05/15 09:01:20;;;;;;;;;1.00;1.00;;;;;30.65;24.43;101089.81;5041595;28;45595;-91
2022/05/15 09:03:47;;;;;;;;;2.33;2.33;;;;;31.17;23.27;101032.84;5043813;28;45538;-92
2022/05/15 09:06:37;;;;;;;;;3.00;1.00;;;;;32.10;23.76;101075.09;5067039;28;45289;-94
2022/05/15 09:09:28;;;;;;;;;1.00;1.00;;;;;32.74;21.24;101078.69;5055757;28;48528;-92
2022/05/15 09:12:01;;;;;;;;;2.00;2.00;;;;;32.72;21.41;101051.28;5042029;28;45276;-94
2022/05/15 09:14:54;;;;;;;;;2.00;2.00;;;;;32.80;21.96;101073.22;5052556;28;45336;-93
2022/05/15 09:17:44;;;;;;;;;2.00;2.00;;;;;32.73;22.28;101077.84;5059303;28;45354;-90
2022/05/15 09:20:15;;;;;;;;;2.00;2.00;;;;;32.80;21.65;101067.69;5065348;28;46051;-88
2022/05/15 09:22:47;;;;;;;;;1.67;1.67;;;;;32.61;20.99;101026.19;5037551;28;45701;-87
2022/05/15 09:25:21;;;;;;;;;2.00;2.00;;;;;32.59;20.70;100971.16;5066466;28;45447;-86
2022/05/15 09:28:05;;;;;;;;;2.00;2.00;;;;;32.97;20.60;101009.34;5070830;28;45404;-92
2022/05/15 09:30:42;;;;;;;;;1.67;1.67;;;;;33.57;20.46;101007.53;5026654;28;48179;-92
2022/05/15 09:33:23;;;;;;;;;1.67;1.67;;;;;33.87;19.05;100992.44;5076612;28;45439;-89
2022/05/15 09:35:49;;;;;;;;;2.67;2.00;;;;;34.17;18.73;101003.91;5063533;28;45279;-87
2022/05/15 09:38:30;;;;;;;;;2.00;2.00;;;;;35.04;19.20;101055.13;5069590;28;45398;-88
2022/05/15 09:43:56;;;;;;;;;3.00;0.67;;;;;35.89;17.47;101010.41;5052995;28;45387;-89
2022/05/15 09:46:27;;;;;;;;;1.00;0.33;;;;;36.16;16.88;100990.72;5042514;28;45583;-89
2022/05/15 09:49:20;;;;;;;;;0.67;0.67;;;;;37.07;16.88;101055.66;5047861;28;45357;-89
2022/05/15 09:51:55;;;;;;;;;1.00;1.00;;;;;37.20;16.35;100968.41;5044861;28;47537;-86
2022/05/15 09:54:49;;;;;;;;;0.67;0.67;;;;;38.11;15.72;101044.16;5040219;28;45533;-89
2022/05/15 09:57:27;;;;;;;;;1.33;1.33;;;;;38.04;15.63;101018.38;5043749;28;45449;-84
2022/05/15 10:00:05;;;;;;;;;1.00;1.00;;;;;38.67;15.93;101011.13;5061048;28;45414;-88
2022/05/15 10:02:46;;;;;;;;;0.67;0.67;;;;;39.36;15.11;100988.81;5048207;28;47086;-86
2022/05/15 10:05:14;;;;;;;;;4.00;3.00;;;;;40.18;14.08;101018.00;5046944;28;45482;-86
2022/05/15 10:07:45;;;;;;;;;2.00;2.00;;;;;40.55;13.06;101009.00;5043771;28;45509;-87
2022/05/15 10:10:16;;;;;;;;;1.33;1.33;;;;;40.05;14.06;100985.69;5048263;28;45421;-87
2022/05/15 10:12:44;;;;;;;;;3.00;2.00;;;;;39.91;13.58;100962.03;5064042;28;46065;-84
2022/05/15 10:15:10;;;;;;;;;1.67;0.33;;;;;41.16;12.25;100996.84;5043499;28;45813;-87
2022/05/15 10:17:50;;;;;;;;;3.00;1.00;;;;;42.23;11.81;100986.47;5058652;28;45414;-84
2022/05/15 10:20:29;;;;;;;;;2.00;2.00;;;;;43.35;11.13;100996.38;5042691;28;45500;-87
2022/05/15 10:23:17;;;;;;;;;0.67;0.00;;;;;44.01;10.39;100979.47;5043065;28;47164;-85
2022/05/15 10:25:48;;;;;;;;;2.67;2.67;;;;;44.91;10.54;101007.78;5048319;28;45617;-82
2022/05/15 10:28:22;;;;;;;;;3.00;3.00;;;;;45.75;8.97;100997.25;5055339;28;45504;-85
2022/05/15 10:31:05;;;;;;;;;3.67;2.00;;;;;45.03;9.82;100988.56;5055000;28;45742;-84
2022/05/15 10:33:36;;;;;;;;;1.00;1.00;;;;;44.12;10.32;100999.13;5050864;28;46594;-82
2022/05/15 10:36:27;;;;;;;;;1.00;1.00;;;;;44.37;10.21;100990.59;5056352;28;45405;-86
2022/05/15 10:39:18;;;;;;;;;2.00;2.00;;;;;45.61;10.05;100991.50;5018477;28;45839;-87
2022/05/15 10:41:53;;;;;;;;;0.00;0.00;;;;;47.10;8.90;100989.66;5020579;28;45451;-89
2022/05/15 10:44:30;;;;;;;;;2.00;2.00;;;;;47.72;8.76;100989.44;5012826;28;47479;-88
2022/05/15 10:47:03;;;;;;;;;2.00;2.00;;;;;48.21;8.39;100982.31;5018464;28;46052;-90
2022/05/15 10:49:47;;;;;;;;;1.00;1.00;;;;;48.57;7.82;101001.34;5003153;28;45413;-90
2022/05/15 10:52:38;;;;;;;;;1.00;1.00;;;;;48.57;7.60;100973.88;4996162;28;45470;-91
2022/05/15 10:58:09;;;;;;;;;2.00;2.00;;;;;48.90;7.71;100928.41;5015791;28;45536;-90
2022/05/15 11:00:48;;;;;;;;;1.67;1.67;;;;;48.19;7.99;100959.16;5017391;28;45492;-90
2022/05/15 11:03:22;;;;;;;;;3.33;2.67;;;;;47.50;9.05;100979.69;5000115;28;45484;-91
2022/05/15 11:06:15;;;;;;;;;2.00;2.00;;;;;46.03;9.61;100983.47;5013477;28;47325;-90
2022/05/15 11:09:08;;;;;;;;;1.67;1.67;;;;;43.86;10.59;100942.13;5026616;28;45638;-93
2022/05/15 11:11:46;;;;;;;;;3.00;2.00;;;;;41.78;12.17;100973.88;5017796;28;45604;-91
2022/05/15 11:14:30;;;;;;;;;3.67;1.67;;;;;40.02;13.04;100963.88;4998383;28;45740;-92
2022/05/15 11:17:01;;;;;;;;;2.67;2.67;;;;;39.19;14.26;100960.84;5055239;28;47171;-90
2022/05/15 11:19:43;;;;;;;;;9.67;8.00;;;;;38.49;14.87;100924.97;5035026;28;45578;-87
2022/05/15 11:22:12;;;;;;;;;2.00;2.00;;;;;38.13;14.96;100964.03;5029436;28;45528;-87
2022/05/15 11:25:06;;;;;;;;;3.67;2.00;;;;;37.65;15.71;100955.91;5052090;28;45672;-89
2022/05/15 11:27:51;;;;;;;;;11.33;9.33;;;;;37.21;15.78;100922.88;5033760;28;46890;-90
2022/05/15 11:30:28;;;;;;;;;3.33;3.00;;;;;37.17;15.66;100944.72;5043011;28;45672;-84
2022/05/15 11:32:54;;;;;;;;;3.33;2.00;;;;;36.95;15.24;100943.56;5038531;28;45559;-84
2022/05/15 11:35:26;;;;;;;;;4.00;2.33;;;;;36.54;16.21;100943.25;5052318;28;45506;-87
2022/05/15 11:38:06;;;;;;;;;1.67;1.00;;;;;36.37;15.70;100944.16;5039664;28;48008;-86
2022/05/15 11:40:45;;;;;;;;;1.67;1.67;;;;;36.09;15.76;100934.41;5039181;28;45737;-82
2022/05/15 11:43:25;;;;;;;;;2.67;2.67;;;;;35.97;16.17;100926.00;5059688;28;45508;-86
2022/05/15 11:45:53;;;;;;;;;3.00;3.00;;;;;35.72;16.21;100928.84;5068689;28;45451;-90
2022/05/15 11:48:22;;;;;;;;;8.00;6.00;;;;;35.62;16.55;100932.13;5057482;28;46423;-86
2022/05/15 11:50:55;;;;;;;;;5.67;4.00;;;;;35.16;15.88;100879.88;5054555;28;45497;-89
2022/05/15 11:53:31;;;;;;;;;4.00;4.00;;;;;35.19;15.95;100929.28;5052876;28;45580;-85
2022/05/15 11:55:57;;;;;;;;;2.00;1.67;;;;;34.67;15.58;100869.31;5048552;28;45479;-84
2022/05/15 11:58:30;;;;;;;;;1.67;1.00;;;;;34.97;16.37;100926.88;5047521;28;46687;-91